sensor_id;sensor_type;location;lat;lon;timestamp;P1;durP1;ratioP1;P2;durP2;ratioP2
61477;SDS011;47345;52.334;10.392;2022-07-12T00:01:24;2.00;;;1.20;;
61477;SDS011;47345;52.334;10.392;2022-07-12T00:03:54;0.90;;;0.90;;
61477;SDS011;47345;52.334;10.392;2022-07-12T00:06:25;1.00;;;1.00;;
61477;SDS011;47345;52.334;10.392;2022-07-12T00:08:55;1.20;;;1.10;;
61477;SDS011;47345;52.334;10.392;2022-07-12T00:11:25;1.40;;;1.30;;
61477;SDS011;47345;52.334;10.392;2022-07-12T00:13:56;1.40;;;1.30;;
61477;SDS011;47345;52.334;10.392;2022-07-12T00:16:26;0.80;;;0.80;;
61477;SDS011;47345;52.334;10.392;2022-07-12T00:18:57;1.50;;;1.30;;
61477;SDS011;47345;52.334;10.392;2022-07-12T00:21:27;1.60;;;1.40;;
61477;SDS011;47345;52.334;10.392;2022-07-12T00:23:58;1.30;;;1.20;;
61477;SDS011;47345;52.334;10.392;2022-07-12T00:26:28;1.20;;;1.10;;
61477;SDS011;47345;52.334;10.392;2022-07-12T00:28:59;1.20;;;1.20;;
61477;SDS011;47345;52.334;10.392;2022-07-12T00:31:29;1.70;;;1.30;;
61477;SDS011;47345;52.334;10.392;2022-07-12T00:34:00;1.00;;;1.00;;
61477;SDS011;47345;52.334;10.392;2022-07-12T00:36:30;1.10;;;1.10;;
61477;SDS011;47345;52.334;10.392;2022-07-12T00:39:00;1.40;;;1.30;;
61477;SDS011;47345;52.334;10.392;2022-07-12T00:41:31;1.50;;;1.40;;
61477;SDS011;47345;52.334;10.392;2022-07-12T00:44:01;1.20;;;1.20;;
61477;SDS011;47345;52.334;10.392;2022-07-12T00:46:32;1.10;;;1.10;;
61477;SDS011;47345;52.334;10.392;2022-07-12T00:49:03;1.50;;;1.40;;
61477;SDS011;47345;52.334;10.392;2022-07-12T00:51:33;1.00;;;1.00;;
61477;SDS011;47345;52.334;10.392;2022-07-12T00:54:04;1.40;;;1.10;;
61477;SDS011;47345;52.334;10.392;2022-07-12T00:56:34;2.00;;;1.40;;
61477;SDS011;47345;52.334;10.392;2022-07-12T00:59:05;1.30;;;1.20;;
61477;SDS011;47345;52.334;10.392;2022-07-12T01:01:35;1.00;;;1.00;;
61477;SDS011;47345;52.334;10.392;2022-07-12T01:04:07;1.20;;;1.20;;
61477;SDS011;47345;52.334;10.392;2022-07-12T01:06:38;1.40;;;1.30;;
61477;SDS011;47345;52.334;10.392;2022-07-12T01:09:08;1.20;;;1.10;;
61477;SDS011;47345;52.334;10.392;2022-07-12T01:11:40;1.30;;;1.30;;
61477;SDS011;47345;52.334;10.392;2022-07-12T01:14:11;1.50;;;1.40;;
61477;SDS011;47345;52.334;10.392;2022-07-12T01:16:43;1.50;;;1.40;;
61477;SDS011;47345;52.334;10.392;2022-07-12T01:19:14;1.60;;;1.50;;
61477;SDS011;47345;52.334;10.392;2022-07-12T01:21:50;1.30;;;1.20;;
61477;SDS011;47345;52.334;10.392;2022-07-12T01:24:22;1.20;;;1.20;;
61477;SDS011;47345;52.334;10.392;2022-07-12T01:26:52;1.40;;;1.30;;
61477;SDS011;47345;52.334;10.392;2022-07-12T01:29:23;1.20;;;1.20;;
61477;SDS011;47345;52.334;10.392;2022-07-12T01:31:54;1.40;;;1.30;;
61477;SDS011;47345;52.334;10.392;2022-07-12T01:34:48;1.30;;;1.30;;
61477;SDS011;47345;52.334;10.392;2022-07-12T01:37:21;1.40;;;1.30;;
61477;SDS011;47345;52.334;10.392;2022-07-12T01:39:53;1.60;;;1.50;;
61477;SDS011;47345;52.334;10.392;2022-07-12T01:42:25;1.80;;;1.40;;
61477;SDS011;47345;52.334;10.392;2022-07-12T01:44:57;1.60;;;1.40;;
61477;SDS011;47345;52.334;10.392;2022-07-12T01:47:28;1.70;;;1.60;;
61477;SDS011;47345;52.334;10.392;2022-07-12T01:50:00;1.30;;;1.20;;
61477;SDS011;47345;52.334;10.392;2022-07-12T01:52:32;1.70;;;1.60;;
61477;SDS011;47345;52.334;10.392;2022-07-12T01:55:03;1.40;;;1.30;;
61477;SDS011;47345;52.334;10.392;2022-07-12T01:57:35;1.60;;;1.50;;
61477;SDS011;47345;52.334;10.392;2022-07-12T02:00:07;1.60;;;1.50;;
61477;SDS011;47345;52.334;10.392;2022-07-12T02:02:38;1.90;;;1.30;;
61477;SDS011;47345;52.334;10.392;2022-07-12T02:05:09;1.20;;;1.20;;
61477;SDS011;47345;52.334;10.392;2022-07-12T02:07:40;1.90;;;1.50;;
61477;SDS011;47345;52.334;10.392;2022-07-12T02:10:11;1.70;;;1.60;;
61477;SDS011;47345;52.334;10.392;2022-07-12T02:12:41;1.50;;;1.40;;
61477;SDS011;47345;52.334;10.392;2022-07-12T02:15:11;2.00;;;1.60;;
61477;SDS011;47345;52.334;10.392;2022-07-12T02:17:41;1.60;;;1.50;;
61477;SDS011;47345;52.334;10.392;2022-07-12T02:20:13;2.50;;;1.20;;
61477;SDS011;47345;52.334;10.392;2022-07-12T02:22:44;1.20;;;1.20;;
61477;SDS011;47345;52.334;10.392;2022-07-12T02:25:15;1.30;;;1.20;;
61477;SDS011;47345;52.334;10.392;2022-07-12T02:27:45;1.20;;;1.20;;
61477;SDS011;47345;52.334;10.392;2022-07-12T02:30:17;1.30;;;1.30;;
61477;SDS011;47345;52.334;10.392;2022-07-12T02:32:47;1.50;;;1.40;;
61477;SDS011;47345;52.334;10.392;2022-07-12T02:35:18;1.50;;;1.40;;
61477;SDS011;47345;52.334;10.392;2022-07-12T02:37:49;1.70;;;1.60;;
61477;SDS011;47345;52.334;10.392;2022-07-12T02:40:19;1.70;;;1.60;;
61477;SDS011;47345;52.334;10.392;2022-07-12T02:43:12;1.80;;;1.70;;
61477;SDS011;47345;52.334;10.392;2022-07-12T02:45:42;1.50;;;1.40;;
61477;SDS011;47345;52.334;10.392;2022-07-12T02:48:13;1.40;;;1.30;;
61477;SDS011;47345;52.334;10.392;2022-07-12T02:50:44;1.40;;;1.30;;
61477;SDS011;47345;52.334;10.392;2022-07-12T02:53:14;1.90;;;1.70;;
61477;SDS011;47345;52.334;10.392;2022-07-12T02:55:45;1.60;;;1.50;;
61477;SDS011;47345;52.334;10.392;2022-07-12T02:58:16;1.60;;;1.20;;
61477;SDS011;47345;52.334;10.392;2022-07-12T03:00:46;1.50;;;1.40;;
61477;SDS011;47345;52.334;10.392;2022-07-12T03:03:17;1.20;;;1.20;;
61477;SDS011;47345;52.334;10.392;2022-07-12T03:05:48;1.00;;;1.00;;
61477;SDS011;47345;52.334;10.392;2022-07-12T03:08:18;1.20;;;1.20;;
61477;SDS011;47345;52.334;10.392;2022-07-12T03:10:49;1.40;;;1.40;;
61477;SDS011;47345;52.334;10.392;2022-07-12T03:13:20;1.20;;;1.20;;
61477;SDS011;47345;52.334;10.392;2022-07-12T03:15:50;1.40;;;1.30;;
61477;SDS011;47345;52.334;10.392;2022-07-12T03:18:21;1.40;;;1.30;;
61477;SDS011;47345;52.334;10.392;2022-07-12T03:20:52;1.00;;;1.00;;
61477;SDS011;47345;52.334;10.392;2022-07-12T03:23:23;1.30;;;1.30;;
61477;SDS011;47345;52.334;10.392;2022-07-12T03:25:54;1.30;;;1.20;;
61477;SDS011;47345;52.334;10.392;2022-07-12T03:28:24;1.50;;;1.40;;
61477;SDS011;47345;52.334;10.392;2022-07-12T03:30:55;1.30;;;1.30;;
61477;SDS011;47345;52.334;10.392;2022-07-12T03:33:26;1.70;;;1.60;;
61477;SDS011;47345;52.334;10.392;2022-07-12T03:36:00;9.00;;;7.30;;
61477;SDS011;47345;52.334;10.392;2022-07-12T03:38:32;10.40;;;5.20;;
61477;SDS011;47345;52.334;10.392;2022-07-12T03:41:02;3.30;;;2.40;;
61477;SDS011;47345;52.334;10.392;2022-07-12T03:43:33;1.80;;;1.70;;
61477;SDS011;47345;52.334;10.392;2022-07-12T03:46:04;1.60;;;1.50;;
61477;SDS011;47345;52.334;10.392;2022-07-12T03:48:35;1.90;;;1.70;;
61477;SDS011;47345;52.334;10.392;2022-07-12T03:51:06;1.80;;;1.70;;
61477;SDS011;47345;52.334;10.392;2022-07-12T03:53:36;1.90;;;1.80;;
61477;SDS011;47345;52.334;10.392;2022-07-12T03:56:08;1.80;;;1.70;;
61477;SDS011;47345;52.334;10.392;2022-07-12T03:58:58;1.70;;;1.60;;
61477;SDS011;47345;52.334;10.392;2022-07-12T04:01:28;1.50;;;1.40;;
61477;SDS011;47345;52.334;10.392;2022-07-12T04:04:00;2.40;;;2.20;;
61477;SDS011;47345;52.334;10.392;2022-07-12T04:06:31;2.90;;;2.60;;
61477;SDS011;47345;52.334;10.392;2022-07-12T04:09:02;2.60;;;2.20;;
61477;SDS011;47345;52.334;10.392;2022-07-12T04:11:32;1.70;;;1.60;;
61477;SDS011;47345;52.334;10.392;2022-07-12T04:14:03;1.90;;;1.70;;
61477;SDS011;47345;52.334;10.392;2022-07-12T04:16:33;2.20;;;1.90;;
61477;SDS011;47345;52.334;10.392;2022-07-12T04:19:04;2.20;;;2.00;;
61477;SDS011;47345;52.334;10.392;2022-07-12T04:21:36;4.40;;;3.40;;
61477;SDS011;47345;52.334;10.392;2022-07-12T04:24:07;6.30;;;4.10;;
61477;SDS011;47345;52.334;10.392;2022-07-12T04:26:37;3.00;;;2.50;;
61477;SDS011;47345;52.334;10.392;2022-07-12T04:29:08;2.40;;;2.20;;
61477;SDS011;47345;52.334;10.392;2022-07-12T04:31:39;3.20;;;2.00;;
61477;SDS011;47345;52.334;10.392;2022-07-12T04:34:09;1.70;;;1.60;;
61477;SDS011;47345;52.334;10.392;2022-07-12T04:36:44;2.10;;;1.50;;
61477;SDS011;47345;52.334;10.392;2022-07-12T04:39:15;1.70;;;1.60;;
61477;SDS011;47345;52.334;10.392;2022-07-12T04:41:45;2.30;;;2.00;;
61477;SDS011;47345;52.334;10.392;2022-07-12T04:44:16;1.80;;;1.70;;
61477;SDS011;47345;52.334;10.392;2022-07-12T04:46:47;1.90;;;1.70;;
61477;SDS011;47345;52.334;10.392;2022-07-12T04:49:17;2.70;;;1.90;;
61477;SDS011;47345;52.334;10.392;2022-07-12T04:51:48;1.90;;;1.80;;
61477;SDS011;47345;52.334;10.392;2022-07-12T04:54:18;2.10;;;1.90;;
61477;SDS011;47345;52.334;10.392;2022-07-12T04:56:49;4.60;;;2.40;;
61477;SDS011;47345;52.334;10.392;2022-07-12T04:59:19;2.20;;;2.00;;
61477;SDS011;47345;52.334;10.392;2022-07-12T05:01:50;2.40;;;2.20;;
61477;SDS011;47345;52.334;10.392;2022-07-12T05:04:20;2.50;;;1.90;;
61477;SDS011;47345;52.334;10.392;2022-07-12T05:06:50;2.90;;;2.30;;
61477;SDS011;47345;52.334;10.392;2022-07-12T05:09:21;2.50;;;2.30;;
61477;SDS011;47345;52.334;10.392;2022-07-12T05:11:51;3.40;;;2.60;;
61477;SDS011;47345;52.334;10.392;2022-07-12T05:14:22;3.10;;;2.30;;
61477;SDS011;47345;52.334;10.392;2022-07-12T05:16:53;2.90;;;2.30;;
61477;SDS011;47345;52.334;10.392;2022-07-12T05:19:24;3.80;;;1.90;;
61477;SDS011;47345;52.334;10.392;2022-07-12T05:21:54;2.90;;;2.10;;
61477;SDS011;47345;52.334;10.392;2022-07-12T05:24:25;9.20;;;2.60;;
61477;SDS011;47345;52.334;10.392;2022-07-12T05:26:55;3.60;;;2.40;;
61477;SDS011;47345;52.334;10.392;2022-07-12T05:29:26;2.40;;;2.10;;
61477;SDS011;47345;52.334;10.392;2022-07-12T05:31:56;5.00;;;2.60;;
61477;SDS011;47345;52.334;10.392;2022-07-12T05:34:37;2.40;;;2.20;;
61477;SDS011;47345;52.334;10.392;2022-07-12T05:37:08;3.90;;;2.40;;
61477;SDS011;47345;52.334;10.392;2022-07-12T05:39:38;11.00;;;2.30;;
61477;SDS011;47345;52.334;10.392;2022-07-12T05:42:11;7.20;;;2.40;;
61477;SDS011;47345;52.334;10.392;2022-07-12T05:44:41;3.00;;;2.30;;
61477;SDS011;47345;52.334;10.392;2022-07-12T05:47:12;5.30;;;2.30;;
61477;SDS011;47345;52.334;10.392;2022-07-12T05:49:42;5.10;;;2.10;;
61477;SDS011;47345;52.334;10.392;2022-07-12T05:52:12;2.60;;;2.00;;
61477;SDS011;47345;52.334;10.392;2022-07-12T05:54:57;2.10;;;1.90;;
61477;SDS011;47345;52.334;10.392;2022-07-12T05:57:27;4.10;;;2.00;;
61477;SDS011;47345;52.334;10.392;2022-07-12T05:59:58;2.40;;;1.90;;
61477;SDS011;47345;52.334;10.392;2022-07-12T06:02:28;2.10;;;1.80;;
61477;SDS011;47345;52.334;10.392;2022-07-12T06:04:59;1.90;;;1.80;;
61477;SDS011;47345;52.334;10.392;2022-07-12T06:07:29;1.90;;;1.70;;
61477;SDS011;47345;52.334;10.392;2022-07-12T06:10:00;1.90;;;1.80;;
61477;SDS011;47345;52.334;10.392;2022-07-12T06:12:31;2.10;;;1.80;;
61477;SDS011;47345;52.334;10.392;2022-07-12T06:15:01;1.70;;;1.60;;
61477;SDS011;47345;52.334;10.392;2022-07-12T06:17:33;1.90;;;1.70;;
61477;SDS011;47345;52.334;10.392;2022-07-12T06:20:05;2.60;;;1.70;;
61477;SDS011;47345;52.334;10.392;2022-07-12T06:22:36;2.10;;;1.80;;
61477;SDS011;47345;52.334;10.392;2022-07-12T06:25:08;1.60;;;1.50;;
61477;SDS011;47345;52.334;10.392;2022-07-12T06:28:00;1.80;;;1.70;;
61477;SDS011;47345;52.334;10.392;2022-07-12T06:30:32;3.20;;;1.90;;
61477;SDS011;47345;52.334;10.392;2022-07-12T06:33:03;1.60;;;1.50;;
61477;SDS011;47345;52.334;10.392;2022-07-12T06:35:33;1.80;;;1.70;;
61477;SDS011;47345;52.334;10.392;2022-07-12T06:38:03;1.60;;;1.50;;
61477;SDS011;47345;52.334;10.392;2022-07-12T06:40:34;2.00;;;1.50;;
61477;SDS011;47345;52.334;10.392;2022-07-12T06:43:09;1.70;;;1.60;;
61477;SDS011;47345;52.334;10.392;2022-07-12T06:45:41;2.00;;;1.50;;
61477;SDS011;47345;52.334;10.392;2022-07-12T06:48:12;1.40;;;1.40;;
61477;SDS011;47345;52.334;10.392;2022-07-12T06:50:42;1.50;;;1.40;;
61477;SDS011;47345;52.334;10.392;2022-07-12T06:53:13;1.20;;;1.20;;
61477;SDS011;47345;52.334;10.392;2022-07-12T06:55:44;0.90;;;0.90;;
61477;SDS011;47345;52.334;10.392;2022-07-12T06:58:14;1.10;;;1.10;;
61477;SDS011;47345;52.334;10.392;2022-07-12T07:00:44;1.20;;;1.20;;
61477;SDS011;47345;52.334;10.392;2022-07-12T07:03:15;0.90;;;0.90;;
61477;SDS011;47345;52.334;10.392;2022-07-12T07:05:45;1.80;;;1.50;;
61477;SDS011;47345;52.334;10.392;2022-07-12T07:08:16;0.90;;;0.90;;
61477;SDS011;47345;52.334;10.392;2022-07-12T07:10:46;1.00;;;0.90;;
61477;SDS011;47345;52.334;10.392;2022-07-12T07:13:16;1.90;;;1.30;;
61477;SDS011;47345;52.334;10.392;2022-07-12T07:15:47;1.40;;;1.20;;
61477;SDS011;47345;52.334;10.392;2022-07-12T07:18:17;1.80;;;1.20;;
61477;SDS011;47345;52.334;10.392;2022-07-12T07:20:48;1.00;;;1.00;;
61477;SDS011;47345;52.334;10.392;2022-07-12T07:23:18;0.90;;;0.90;;
61477;SDS011;47345;52.334;10.392;2022-07-12T07:25:49;1.00;;;1.00;;
61477;SDS011;47345;52.334;10.392;2022-07-12T07:28:19;1.20;;;1.20;;
61477;SDS011;47345;52.334;10.392;2022-07-12T07:31:09;0.90;;;0.90;;
61477;SDS011;47345;52.334;10.392;2022-07-12T07:33:39;1.60;;;1.20;;
61477;SDS011;47345;52.334;10.392;2022-07-12T07:36:10;0.80;;;0.80;;
61477;SDS011;47345;52.334;10.392;2022-07-12T07:38:40;1.00;;;1.00;;
61477;SDS011;47345;52.334;10.392;2022-07-12T07:41:10;0.90;;;0.90;;
61477;SDS011;47345;52.334;10.392;2022-07-12T07:43:41;1.30;;;1.20;;
61477;SDS011;47345;52.334;10.392;2022-07-12T07:46:11;1.10;;;1.10;;
61477;SDS011;47345;52.334;10.392;2022-07-12T07:48:42;0.90;;;0.90;;
61477;SDS011;47345;52.334;10.392;2022-07-12T07:51:12;1.10;;;1.10;;
61477;SDS011;47345;52.334;10.392;2022-07-12T07:53:43;1.30;;;1.20;;
61477;SDS011;47345;52.334;10.392;2022-07-12T07:56:13;1.40;;;1.30;;
61477;SDS011;47345;52.334;10.392;2022-07-12T07:58:43;3.30;;;1.30;;
61477;SDS011;47345;52.334;10.392;2022-07-12T08:01:14;1.30;;;1.30;;
61477;SDS011;47345;52.334;10.392;2022-07-12T08:03:44;1.30;;;1.20;;
61477;SDS011;47345;52.334;10.392;2022-07-12T08:06:14;1.30;;;1.20;;
61477;SDS011;47345;52.334;10.392;2022-07-12T08:08:45;1.30;;;1.20;;
61477;SDS011;47345;52.334;10.392;2022-07-12T08:11:35;1.40;;;1.30;;
61477;SDS011;47345;52.334;10.392;2022-07-12T08:14:06;2.80;;;1.20;;
61477;SDS011;47345;52.334;10.392;2022-07-12T08:16:37;1.10;;;1.00;;
61477;SDS011;47345;52.334;10.392;2022-07-12T08:19:08;1.20;;;1.10;;
61477;SDS011;47345;52.334;10.392;2022-07-12T08:21:38;1.40;;;1.20;;
61477;SDS011;47345;52.334;10.392;2022-07-12T08:24:08;1.50;;;1.40;;
61477;SDS011;47345;52.334;10.392;2022-07-12T08:26:39;1.50;;;1.40;;
61477;SDS011;47345;52.334;10.392;2022-07-12T08:29:09;1.50;;;1.40;;
61477;SDS011;47345;52.334;10.392;2022-07-12T08:31:40;1.60;;;1.50;;
61477;SDS011;47345;52.334;10.392;2022-07-12T08:34:10;1.50;;;1.40;;
61477;SDS011;47345;52.334;10.392;2022-07-12T08:36:41;1.50;;;1.40;;
61477;SDS011;47345;52.334;10.392;2022-07-12T08:39:12;1.50;;;1.40;;
61477;SDS011;47345;52.334;10.392;2022-07-12T08:41:43;1.60;;;1.50;;
61477;SDS011;47345;52.334;10.392;2022-07-12T08:44:13;1.70;;;1.60;;
61477;SDS011;47345;52.334;10.392;2022-07-12T08:46:44;4.80;;;2.10;;
61477;SDS011;47345;52.334;10.392;2022-07-12T08:49:14;2.80;;;1.90;;
61477;SDS011;47345;52.334;10.392;2022-07-12T08:51:45;2.50;;;2.20;;
61477;SDS011;47345;52.334;10.392;2022-07-12T08:54:17;2.30;;;2.10;;
61477;SDS011;47345;52.334;10.392;2022-07-12T08:56:47;2.30;;;2.10;;
61477;SDS011;47345;52.334;10.392;2022-07-12T08:59:18;3.00;;;2.20;;
61477;SDS011;47345;52.334;10.392;2022-07-12T09:01:50;2.30;;;1.90;;
61477;SDS011;47345;52.334;10.392;2022-07-12T09:04:22;3.30;;;2.50;;
61477;SDS011;47345;52.334;10.392;2022-07-12T09:06:55;2.60;;;2.30;;
61477;SDS011;47345;52.334;10.392;2022-07-12T09:09:28;2.70;;;2.30;;
61477;SDS011;47345;52.334;10.392;2022-07-12T09:12:00;2.40;;;2.10;;
61477;SDS011;47345;52.334;10.392;2022-07-12T09:14:31;3.70;;;2.80;;
61477;SDS011;47345;52.334;10.392;2022-07-12T09:17:02;2.40;;;2.10;;
61477;SDS011;47345;52.334;10.392;2022-07-12T09:19:40;4.30;;;2.20;;
61477;SDS011;47345;52.334;10.392;2022-07-12T09:22:24;3.50;;;2.50;;
61477;SDS011;47345;52.334;10.392;2022-07-12T09:24:55;4.40;;;2.90;;
61477;SDS011;47345;52.334;10.392;2022-07-12T09:27:25;2.70;;;2.10;;
61477;SDS011;47345;52.334;10.392;2022-07-12T09:29:56;3.30;;;2.80;;
61477;SDS011;47345;52.334;10.392;2022-07-12T09:32:27;2.20;;;2.00;;
61477;SDS011;47345;52.334;10.392;2022-07-12T09:35:18;3.30;;;2.60;;
61477;SDS011;47345;52.334;10.392;2022-07-12T09:38:09;2.50;;;2.30;;
61477;SDS011;47345;52.334;10.392;2022-07-12T09:40:40;3.30;;;2.30;;
61477;SDS011;47345;52.334;10.392;2022-07-12T09:43:11;2.50;;;2.30;;
61477;SDS011;47345;52.334;10.392;2022-07-12T09:45:43;2.40;;;1.90;;
61477;SDS011;47345;52.334;10.392;2022-07-12T09:48:15;2.00;;;1.80;;
61477;SDS011;47345;52.334;10.392;2022-07-12T09:50:48;1.90;;;1.80;;
61477;SDS011;47345;52.334;10.392;2022-07-12T09:53:26;2.00;;;1.70;;
61477;SDS011;47345;52.334;10.392;2022-07-12T09:55:59;1.80;;;1.70;;
61477;SDS011;47345;52.334;10.392;2022-07-12T09:58:36;1.80;;;1.70;;
61477;SDS011;47345;52.334;10.392;2022-07-12T10:01:12;2.00;;;1.80;;
61477;SDS011;47345;52.334;10.392;2022-07-12T10:03:45;2.00;;;1.70;;
61477;SDS011;47345;52.334;10.392;2022-07-12T10:06:20;2.00;;;1.80;;
61477;SDS011;47345;52.334;10.392;2022-07-12T10:08:59;1.80;;;1.70;;
61477;SDS011;47345;52.334;10.392;2022-07-12T10:11:31;3.10;;;1.80;;
61477;SDS011;47345;52.334;10.392;2022-07-12T10:14:23;3.60;;;2.60;;
61477;SDS011;47345;52.334;10.392;2022-07-12T10:16:55;1.70;;;1.60;;
61477;SDS011;47345;52.334;10.392;2022-07-12T10:19:27;1.70;;;1.60;;
61477;SDS011;47345;52.334;10.392;2022-07-12T10:22:00;2.40;;;2.00;;
61477;SDS011;47345;52.334;10.392;2022-07-12T10:24:51;2.90;;;1.90;;
61477;SDS011;47345;52.334;10.392;2022-07-12T10:27:29;1.60;;;1.50;;
61477;SDS011;47345;52.334;10.392;2022-07-12T10:32:59;3.20;;;1.60;;
61477;SDS011;47345;52.334;10.392;2022-07-12T10:35:30;2.30;;;1.70;;
61477;SDS011;47345;52.334;10.392;2022-07-12T10:38:19;1.70;;;1.60;;
61477;SDS011;47345;52.334;10.392;2022-07-12T10:40:50;1.70;;;1.60;;
61477;SDS011;47345;52.334;10.392;2022-07-12T10:43:22;1.80;;;1.70;;
61477;SDS011;47345;52.334;10.392;2022-07-12T10:46:20;1.80;;;1.70;;
61477;SDS011;47345;52.334;10.392;2022-07-12T10:57:48;1.80;;;1.60;;
61477;SDS011;47345;52.334;10.392;2022-07-12T11:00:20;4.10;;;1.40;;
61477;SDS011;47345;52.334;10.392;2022-07-12T11:02:51;1.20;;;1.20;;
61477;SDS011;47345;52.334;10.392;2022-07-12T11:05:26;1.40;;;1.30;;
61477;SDS011;47345;52.334;10.392;2022-07-12T11:07:57;2.50;;;1.20;;
61477;SDS011;47345;52.334;10.392;2022-07-12T11:10:34;1.50;;;1.40;;
61477;SDS011;47345;52.334;10.392;2022-07-12T11:15:58;3.20;;;1.50;;
61477;SDS011;47345;52.334;10.392;2022-07-12T11:18:30;1.10;;;1.10;;
61477;SDS011;47345;52.334;10.392;2022-07-12T11:21:02;1.30;;;1.30;;
61477;SDS011;47345;52.334;10.392;2022-07-12T11:23:33;1.90;;;1.80;;
61477;SDS011;47345;52.334;10.392;2022-07-12T11:26:04;1.70;;;1.60;;
61477;SDS011;47345;52.334;10.392;2022-07-12T11:28:36;2.30;;;1.70;;
61477;SDS011;47345;52.334;10.392;2022-07-12T11:31:08;1.50;;;1.40;;
61477;SDS011;47345;52.334;10.392;2022-07-12T11:33:40;1.40;;;1.30;;
61477;SDS011;47345;52.334;10.392;2022-07-12T11:36:13;2.30;;;1.60;;
61477;SDS011;47345;52.334;10.392;2022-07-12T11:38:45;1.40;;;1.30;;
61477;SDS011;47345;52.334;10.392;2022-07-12T11:41:16;1.60;;;1.50;;
61477;SDS011;47345;52.334;10.392;2022-07-12T11:43:47;1.60;;;1.50;;
61477;SDS011;47345;52.334;10.392;2022-07-12T11:46:17;1.00;;;1.00;;
61477;SDS011;47345;52.334;10.392;2022-07-12T11:48:48;1.50;;;1.40;;
61477;SDS011;47345;52.334;10.392;2022-07-12T11:51:19;1.60;;;1.50;;
61477;SDS011;47345;52.334;10.392;2022-07-12T11:53:56;1.90;;;1.60;;
61477;SDS011;47345;52.334;10.392;2022-07-12T11:56:30;1.50;;;1.40;;
61477;SDS011;47345;52.334;10.392;2022-07-12T11:59:00;1.70;;;1.60;;
61477;SDS011;47345;52.334;10.392;2022-07-12T12:01:30;1.50;;;1.40;;
61477;SDS011;47345;52.334;10.392;2022-07-12T12:04:01;1.20;;;1.20;;
61477;SDS011;47345;52.334;10.392;2022-07-12T12:06:32;1.40;;;1.30;;
61477;SDS011;47345;52.334;10.392;2022-07-12T12:09:06;1.60;;;1.50;;
61477;SDS011;47345;52.334;10.392;2022-07-12T12:11:36;1.70;;;1.60;;
61477;SDS011;47345;52.334;10.392;2022-07-12T12:14:07;1.60;;;1.50;;
61477;SDS011;47345;52.334;10.392;2022-07-12T12:16:38;1.40;;;1.30;;
61477;SDS011;47345;52.334;10.392;2022-07-12T12:19:11;6.60;;;4.50;;
61477;SDS011;47345;52.334;10.392;2022-07-12T12:21:42;2.10;;;1.90;;
61477;SDS011;47345;52.334;10.392;2022-07-12T12:24:13;1.80;;;1.50;;
61477;SDS011;47345;52.334;10.392;2022-07-12T12:26:45;1.60;;;1.50;;
61477;SDS011;47345;52.334;10.392;2022-07-12T12:29:16;1.90;;;1.80;;
61477;SDS011;47345;52.334;10.392;2022-07-12T12:31:57;2.10;;;1.60;;
61477;SDS011;47345;52.334;10.392;2022-07-12T12:34:28;1.90;;;1.70;;
61477;SDS011;47345;52.334;10.392;2022-07-12T12:37:00;3.00;;;1.40;;
61477;SDS011;47345;52.334;10.392;2022-07-12T12:39:34;1.50;;;1.40;;
61477;SDS011;47345;52.334;10.392;2022-07-12T12:42:05;2.00;;;1.60;;
61477;SDS011;47345;52.334;10.392;2022-07-12T12:44:35;1.70;;;1.60;;
61477;SDS011;47345;52.334;10.392;2022-07-12T12:47:06;1.60;;;1.50;;
61477;SDS011;47345;52.334;10.392;2022-07-12T12:49:54;1.70;;;1.60;;
61477;SDS011;47345;52.334;10.392;2022-07-12T12:52:24;1.70;;;1.60;;
61477;SDS011;47345;52.334;10.392;2022-07-12T12:54:57;1.60;;;1.50;;
61477;SDS011;47345;52.334;10.392;2022-07-12T12:57:27;1.70;;;1.60;;
61477;SDS011;47345;52.334;10.392;2022-07-12T12:59:58;1.70;;;1.50;;
61477;SDS011;47345;52.334;10.392;2022-07-12T13:02:29;1.60;;;1.50;;
61477;SDS011;47345;52.334;10.392;2022-07-12T13:05:00;1.10;;;1.10;;
61477;SDS011;47345;52.334;10.392;2022-07-12T13:07:30;3.80;;;1.50;;
61477;SDS011;47345;52.334;10.392;2022-07-12T13:10:01;1.30;;;1.20;;
61477;SDS011;47345;52.334;10.392;2022-07-12T13:12:31;1.50;;;1.40;;
61477;SDS011;47345;52.334;10.392;2022-07-12T13:15:02;1.00;;;1.00;;
61477;SDS011;47345;52.334;10.392;2022-07-12T13:17:35;1.50;;;1.40;;
61477;SDS011;47345;52.334;10.392;2022-07-12T13:20:06;1.60;;;1.30;;
61477;SDS011;47345;52.334;10.392;2022-07-12T13:22:37;1.10;;;1.10;;
61477;SDS011;47345;52.334;10.392;2022-07-12T13:25:09;4.00;;;1.40;;
61477;SDS011;47345;52.334;10.392;2022-07-12T13:27:41;1.50;;;1.40;;
61477;SDS011;47345;52.334;10.392;2022-07-12T13:30:13;1.60;;;1.50;;
61477;SDS011;47345;52.334;10.392;2022-07-12T13:32:44;1.40;;;1.30;;
61477;SDS011;47345;52.334;10.392;2022-07-12T13:35:14;1.30;;;1.20;;
61477;SDS011;47345;52.334;10.392;2022-07-12T13:37:45;1.80;;;1.70;;
61477;SDS011;47345;52.334;10.392;2022-07-12T13:42:52;1.50;;;1.40;;
61477;SDS011;47345;52.334;10.392;2022-07-12T13:45:23;1.40;;;1.30;;
61477;SDS011;47345;52.334;10.392;2022-07-12T13:47:54;1.30;;;1.30;;
61477;SDS011;47345;52.334;10.392;2022-07-12T13:50:25;3.60;;;1.40;;
61477;SDS011;47345;52.334;10.392;2022-07-12T13:52:59;1.40;;;1.20;;
61477;SDS011;47345;52.334;10.392;2022-07-12T13:55:29;1.60;;;1.40;;
61477;SDS011;47345;52.334;10.392;2022-07-12T13:58:00;1.40;;;1.30;;
61477;SDS011;47345;52.334;10.392;2022-07-12T14:00:31;2.20;;;1.50;;
61477;SDS011;47345;52.334;10.392;2022-07-12T14:03:02;1.90;;;1.40;;
61477;SDS011;47345;52.334;10.392;2022-07-12T14:05:32;4.40;;;1.20;;
61477;SDS011;47345;52.334;10.392;2022-07-12T14:08:03;1.30;;;1.20;;
61477;SDS011;47345;52.334;10.392;2022-07-12T14:10:34;1.10;;;1.10;;
61477;SDS011;47345;52.334;10.392;2022-07-12T14:13:04;1.40;;;1.30;;
61477;SDS011;47345;52.334;10.392;2022-07-12T14:15:35;1.20;;;1.20;;
61477;SDS011;47345;52.334;10.392;2022-07-12T14:18:06;1.60;;;1.50;;
61477;SDS011;47345;52.334;10.392;2022-07-12T14:20:36;1.00;;;1.00;;
61477;SDS011;47345;52.334;10.392;2022-07-12T14:23:07;1.10;;;1.10;;
61477;SDS011;47345;52.334;10.392;2022-07-12T14:25:41;1.40;;;1.30;;
61477;SDS011;47345;52.334;10.392;2022-07-12T14:28:11;1.40;;;1.30;;
61477;SDS011;47345;52.334;10.392;2022-07-12T14:30:43;3.60;;;1.70;;
61477;SDS011;47345;52.334;10.392;2022-07-12T14:33:14;1.60;;;1.50;;
61477;SDS011;47345;52.334;10.392;2022-07-12T14:35:44;1.60;;;1.50;;
61477;SDS011;47345;52.334;10.392;2022-07-12T14:38:14;1.30;;;1.20;;
61477;SDS011;47345;52.334;10.392;2022-07-12T14:40:45;1.50;;;1.40;;
61477;SDS011;47345;52.334;10.392;2022-07-12T14:43:15;1.50;;;1.40;;
61477;SDS011;47345;52.334;10.392;2022-07-12T14:45:47;1.60;;;1.50;;
61477;SDS011;47345;52.334;10.392;2022-07-12T14:48:17;1.40;;;1.30;;
61477;SDS011;47345;52.334;10.392;2022-07-12T14:50:48;1.50;;;1.40;;
61477;SDS011;47345;52.334;10.392;2022-07-12T14:53:21;1.50;;;1.40;;
61477;SDS011;47345;52.334;10.392;2022-07-12T14:55:51;1.10;;;1.10;;
61477;SDS011;47345;52.334;10.392;2022-07-12T14:58:21;1.30;;;1.20;;
61477;SDS011;47345;52.334;10.392;2022-07-12T15:00:52;1.70;;;1.60;;
61477;SDS011;47345;52.334;10.392;2022-07-12T15:03:22;1.50;;;1.40;;
61477;SDS011;47345;52.334;10.392;2022-07-12T15:05:54;1.20;;;1.10;;
61477;SDS011;47345;52.334;10.392;2022-07-12T15:08:25;8.80;;;2.00;;
61477;SDS011;47345;52.334;10.392;2022-07-12T15:10:55;2.30;;;1.60;;
61477;SDS011;47345;52.334;10.392;2022-07-12T15:13:26;1.20;;;1.10;;
61477;SDS011;47345;52.334;10.392;2022-07-12T15:15:58;2.40;;;1.30;;
61477;SDS011;47345;52.334;10.392;2022-07-12T15:18:29;1.20;;;1.10;;